aviador You're here:

OEDF Decoded Metar

DAMMAM in SAUDI ARABIA
Report Time2018-01-21 06:00:00
UTC Time2018-01-21 06:53:46
Flight Rules ifr IFR
Wind310° at 16 kt
W.Decomp.*RWY 34: 13.6 kt HW 8.5 kt LCW
W.Rank310° ranks 4
Current wind is above 310° avg. (9.5)
Visibility3000 m
Phenomena:Blowing Widespread Dust
Clouds:N/A
Expected CloudBase > 4,800 ft AGL from Temp-Dew spread
CeilingNone
Temp12°C (ISA -3)
Dew Point00°C (44% RH)
AAT4.3°C
QNH1024 hPa
Density Alt-554 ft
Elevation72 ft
Report Wrong Elevation
Raw Report
METAR OEDF 210600Z 31016KT 3000 BLDU NSC 12/00 Q1024 NOSIG=

Extra information for OEDF:More info

Metar Taf Metar & Taf Last 4 Metars F.Rules Stats Wind Profile Meteogram Temp Stats Airport Information Weather charts Add Link Nearby VenuesMetar ALERT Operation Metar Decoded Social comments